CSW4 weather

Bracebridge (Stone Wall Farm) Airport
Bracebridge, Ontario, Canada

Public forecast

Using degrees Celsius for public forecast. Weather courtesy of forecast.io.

METAR (pilot weather report)

Closest report is Muskoka Airport, 4.9 nm (9.1 km) W. Retrieved 2019/07/19 13:00 UTC (23 minutes ago):

CYQA 191300Z AUTO 26004KT 210V290 9SM OVC016 25/22 A2979 RMK SLP084 DENSITY ALT 2400FT

TAF (pilot weather forecast)

Closest forecast is Muskoka Airport, 4.9 nm (9.1 km) W. Retrieved 2019/07/19 14:42 UTC (0 seconds ago):

TAF CYQA 191339Z 1914/2002 26005KT P6SM OVC020 TEMPO 1914/1919 BKN025 FM191900 26010G20KT P6SM SCT010 BKN050 TEMPO 1919/1923 P6SM -SHRA BKN010 PROB30 1919/1923 VRB15G30KT 1SM TSRA BR BKN008 BKN020CB FM192300 26010KT P6SM OVC010 TEMPO 1923/2002 3SM -DZ BR OVC006 RMK FCST BASED ON AUTO OBS. NXT FCST BY 192000Z